sensor_id;sensor_type;location;lat;lon;timestamp;P1;durP1;ratioP1;P2;durP2;ratioP2
82372;SDS011;72000;42.828;23.382;2024-02-04T00:02:06;23.83;;;7.35;;
82372;SDS011;72000;42.828;23.382;2024-02-04T00:04:32;44.35;;;11.52;;
82372;SDS011;72000;42.828;23.382;2024-02-04T00:06:59;43.00;;;13.07;;
82372;SDS011;72000;42.828;23.382;2024-02-04T00:09:25;16.88;;;5.53;;
82372;SDS011;72000;42.828;23.382;2024-02-04T00:11:53;12.68;;;4.63;;
82372;SDS011;72000;42.828;23.382;2024-02-04T00:16:54;13.85;;;4.20;;
82372;SDS011;72000;42.828;23.382;2024-02-04T00:19:19;11.95;;;4.43;;
82372;SDS011;72000;42.828;23.382;2024-02-04T00:21:45;8.98;;;3.35;;
82372;SDS011;72000;42.828;23.382;2024-02-04T00:24:10;9.85;;;3.90;;
82372;SDS011;72000;42.828;23.382;2024-02-04T00:26:36;8.18;;;3.45;;
82372;SDS011;72000;42.828;23.382;2024-02-04T00:29:04;9.45;;;3.38;;
82372;SDS011;72000;42.828;23.382;2024-02-04T00:31:30;8.23;;;3.15;;
82372;SDS011;72000;42.828;23.382;2024-02-04T00:33:55;7.68;;;3.10;;
82372;SDS011;72000;42.828;23.382;2024-02-04T00:36:21;9.15;;;3.47;;
82372;SDS011;72000;42.828;23.382;2024-02-04T00:38:46;8.60;;;3.17;;
82372;SDS011;72000;42.828;23.382;2024-02-04T00:41:12;9.82;;;3.50;;
82372;SDS011;72000;42.828;23.382;2024-02-04T00:43:37;7.13;;;3.03;;
82372;SDS011;72000;42.828;23.382;2024-02-04T00:46:03;7.30;;;3.08;;
82372;SDS011;72000;42.828;23.382;2024-02-04T00:48:29;9.52;;;3.38;;
82372;SDS011;72000;42.828;23.382;2024-02-04T00:50:54;8.25;;;3.15;;
82372;SDS011;72000;42.828;23.382;2024-02-04T00:53:20;9.07;;;3.28;;
82372;SDS011;72000;42.828;23.382;2024-02-04T00:55:45;8.32;;;3.20;;
82372;SDS011;72000;42.828;23.382;2024-02-04T00:58:11;8.02;;;3.30;;
82372;SDS011;72000;42.828;23.382;2024-02-04T01:00:36;8.45;;;2.90;;
82372;SDS011;72000;42.828;23.382;2024-02-04T01:03:02;7.28;;;3.08;;
82372;SDS011;72000;42.828;23.382;2024-02-04T01:05:28;10.05;;;3.30;;
82372;SDS011;72000;42.828;23.382;2024-02-04T01:07:53;8.90;;;3.20;;
82372;SDS011;72000;42.828;23.382;2024-02-04T01:10:19;8.85;;;3.22;;
82372;SDS011;72000;42.828;23.382;2024-02-04T01:12:44;8.55;;;3.33;;
82372;SDS011;72000;42.828;23.382;2024-02-04T01:15:10;6.93;;;3.00;;
82372;SDS011;72000;42.828;23.382;2024-02-04T01:17:36;7.35;;;3.17;;
82372;SDS011;72000;42.828;23.382;2024-02-04T01:20:01;6.80;;;3.10;;
82372;SDS011;72000;42.828;23.382;2024-02-04T01:22:27;8.25;;;3.28;;
82372;SDS011;72000;42.828;23.382;2024-02-04T01:24:53;7.75;;;3.00;;
82372;SDS011;72000;42.828;23.382;2024-02-04T01:27:18;8.00;;;2.80;;
82372;SDS011;72000;42.828;23.382;2024-02-04T01:29:44;7.45;;;2.85;;
82372;SDS011;72000;42.828;23.382;2024-02-04T01:32:09;8.15;;;2.88;;
82372;SDS011;72000;42.828;23.382;2024-02-04T01:34:35;7.45;;;3.20;;
82372;SDS011;72000;42.828;23.382;2024-02-04T01:37:00;7.85;;;3.05;;
82372;SDS011;72000;42.828;23.382;2024-02-04T01:39:26;6.95;;;2.90;;
82372;SDS011;72000;42.828;23.382;2024-02-04T01:41:51;7.72;;;3.20;;
82372;SDS011;72000;42.828;23.382;2024-02-04T01:44:17;7.40;;;3.13;;
82372;SDS011;72000;42.828;23.382;2024-02-04T01:46:44;7.18;;;3.00;;
82372;SDS011;72000;42.828;23.382;2024-02-04T01:49:09;8.45;;;3.15;;
82372;SDS011;72000;42.828;23.382;2024-02-04T01:51:35;7.07;;;2.85;;
82372;SDS011;72000;42.828;23.382;2024-02-04T01:54:02;5.90;;;2.63;;
82372;SDS011;72000;42.828;23.382;2024-02-04T01:56:28;9.02;;;3.50;;
82372;SDS011;72000;42.828;23.382;2024-02-04T01:58:54;7.25;;;3.22;;
82372;SDS011;72000;42.828;23.382;2024-02-04T02:01:20;8.18;;;3.20;;
82372;SDS011;72000;42.828;23.382;2024-02-04T02:03:48;6.78;;;2.90;;
82372;SDS011;72000;42.828;23.382;2024-02-04T02:06:15;7.47;;;2.92;;
82372;SDS011;72000;42.828;23.382;2024-02-04T02:08:41;8.80;;;2.72;;
82372;SDS011;72000;42.828;23.382;2024-02-04T02:11:18;8.32;;;3.10;;
82372;SDS011;72000;42.828;23.382;2024-02-04T02:14:05;8.73;;;2.72;;
82372;SDS011;72000;42.828;23.382;2024-02-04T02:16:32;7.63;;;3.08;;
82372;SDS011;72000;42.828;23.382;2024-02-04T02:19:00;7.03;;;2.97;;
82372;SDS011;72000;42.828;23.382;2024-02-04T02:21:52;7.28;;;2.83;;
82372;SDS011;72000;42.828;23.382;2024-02-04T02:26:48;6.20;;;2.88;;
82372;SDS011;72000;42.828;23.382;2024-02-04T02:29:14;9.85;;;3.47;;
82372;SDS011;72000;42.828;23.382;2024-02-04T02:31:40;7.50;;;2.95;;
82372;SDS011;72000;42.828;23.382;2024-02-04T02:34:06;8.93;;;3.05;;
82372;SDS011;72000;42.828;23.382;2024-02-04T02:36:34;6.13;;;2.83;;
82372;SDS011;72000;42.828;23.382;2024-02-04T02:41:42;8.07;;;3.13;;
82372;SDS011;72000;42.828;23.382;2024-02-04T02:44:10;13.18;;;5.10;;
82372;SDS011;72000;42.828;23.382;2024-02-04T02:46:36;9.27;;;3.35;;
82372;SDS011;72000;42.828;23.382;2024-02-04T02:49:02;10.15;;;3.97;;
82372;SDS011;72000;42.828;23.382;2024-02-04T02:51:28;9.63;;;3.78;;
82372;SDS011;72000;42.828;23.382;2024-02-04T02:53:53;8.18;;;3.25;;
82372;SDS011;72000;42.828;23.382;2024-02-04T02:56:19;7.20;;;3.03;;
82372;SDS011;72000;42.828;23.382;2024-02-04T02:58:44;17.20;;;6.25;;
82372;SDS011;72000;42.828;23.382;2024-02-04T03:01:10;10.80;;;4.18;;
82372;SDS011;72000;42.828;23.382;2024-02-04T03:03:35;8.60;;;3.50;;
82372;SDS011;72000;42.828;23.382;2024-02-04T03:06:01;8.35;;;3.63;;
82372;SDS011;72000;42.828;23.382;2024-02-04T03:08:26;7.57;;;3.25;;
82372;SDS011;72000;42.828;23.382;2024-02-04T03:10:52;7.32;;;3.08;;
82372;SDS011;72000;42.828;23.382;2024-02-04T03:13:17;7.47;;;3.30;;
82372;SDS011;72000;42.828;23.382;2024-02-04T03:15:43;9.15;;;3.83;;
82372;SDS011;72000;42.828;23.382;2024-02-04T03:18:09;8.32;;;3.22;;
82372;SDS011;72000;42.828;23.382;2024-02-04T03:20:36;7.80;;;3.40;;
82372;SDS011;72000;42.828;23.382;2024-02-04T03:23:01;7.82;;;3.20;;
82372;SDS011;72000;42.828;23.382;2024-02-04T03:25:27;8.75;;;3.40;;
82372;SDS011;72000;42.828;23.382;2024-02-04T03:27:54;7.72;;;3.40;;
82372;SDS011;72000;42.828;23.382;2024-02-04T03:30:20;7.93;;;3.40;;
82372;SDS011;72000;42.828;23.382;2024-02-04T03:32:45;9.77;;;4.00;;
82372;SDS011;72000;42.828;23.382;2024-02-04T03:35:11;12.13;;;4.53;;
82372;SDS011;72000;42.828;23.382;2024-02-04T03:37:36;9.18;;;3.58;;
82372;SDS011;72000;42.828;23.382;2024-02-04T03:40:02;9.13;;;3.92;;
82372;SDS011;72000;42.828;23.382;2024-02-04T03:42:27;9.95;;;3.83;;
82372;SDS011;72000;42.828;23.382;2024-02-04T03:44:53;9.35;;;3.83;;
82372;SDS011;72000;42.828;23.382;2024-02-04T03:47:19;9.20;;;3.63;;
82372;SDS011;72000;42.828;23.382;2024-02-04T03:49:44;11.20;;;4.72;;
82372;SDS011;72000;42.828;23.382;2024-02-04T03:52:10;10.82;;;4.13;;
82372;SDS011;72000;42.828;23.382;2024-02-04T03:54:35;12.82;;;5.25;;
82372;SDS011;72000;42.828;23.382;2024-02-04T03:57:01;11.90;;;4.28;;
82372;SDS011;72000;42.828;23.382;2024-02-04T03:59:26;10.98;;;4.32;;
82372;SDS011;72000;42.828;23.382;2024-02-04T04:01:52;9.65;;;4.50;;
82372;SDS011;72000;42.828;23.382;2024-02-04T04:04:20;11.63;;;4.20;;
82372;SDS011;72000;42.828;23.382;2024-02-04T04:06:46;9.00;;;3.90;;
82372;SDS011;72000;42.828;23.382;2024-02-04T04:09:12;10.40;;;4.20;;
82372;SDS011;72000;42.828;23.382;2024-02-04T04:11:37;9.18;;;4.05;;
82372;SDS011;72000;42.828;23.382;2024-02-04T04:14:03;9.20;;;3.65;;
82372;SDS011;72000;42.828;23.382;2024-02-04T04:16:28;9.70;;;3.30;;
82372;SDS011;72000;42.828;23.382;2024-02-04T04:18:54;8.27;;;3.38;;
82372;SDS011;72000;42.828;23.382;2024-02-04T04:21:20;8.50;;;3.60;;
82372;SDS011;72000;42.828;23.382;2024-02-04T04:23:45;9.27;;;3.60;;
82372;SDS011;72000;42.828;23.382;2024-02-04T04:26:11;7.80;;;3.38;;
82372;SDS011;72000;42.828;23.382;2024-02-04T04:28:36;8.50;;;3.30;;
82372;SDS011;72000;42.828;23.382;2024-02-04T04:31:02;8.52;;;4.00;;
82372;SDS011;72000;42.828;23.382;2024-02-04T04:33:27;10.95;;;4.65;;
82372;SDS011;72000;42.828;23.382;2024-02-04T04:35:53;11.55;;;4.18;;
82372;SDS011;72000;42.828;23.382;2024-02-04T04:38:19;23.67;;;8.20;;
82372;SDS011;72000;42.828;23.382;2024-02-04T04:40:44;12.38;;;5.00;;
82372;SDS011;72000;42.828;23.382;2024-02-04T04:43:10;9.85;;;4.25;;
82372;SDS011;72000;42.828;23.382;2024-02-04T04:45:35;11.25;;;4.85;;
82372;SDS011;72000;42.828;23.382;2024-02-04T04:48:01;10.05;;;4.25;;
82372;SDS011;72000;42.828;23.382;2024-02-04T04:50:26;12.27;;;4.93;;
82372;SDS011;72000;42.828;23.382;2024-02-04T04:52:52;9.68;;;4.20;;
82372;SDS011;72000;42.828;23.382;2024-02-04T04:55:18;10.05;;;4.00;;
82372;SDS011;72000;42.828;23.382;2024-02-04T04:57:44;8.90;;;4.25;;
82372;SDS011;72000;42.828;23.382;2024-02-04T05:00:10;7.95;;;3.38;;
82372;SDS011;72000;42.828;23.382;2024-02-04T05:02:37;11.35;;;4.10;;
82372;SDS011;72000;42.828;23.382;2024-02-04T05:05:02;10.10;;;4.28;;
82372;SDS011;72000;42.828;23.382;2024-02-04T05:07:28;11.43;;;4.22;;
82372;SDS011;72000;42.828;23.382;2024-02-04T05:09:54;10.88;;;4.32;;
82372;SDS011;72000;42.828;23.382;2024-02-04T05:12:19;9.05;;;3.97;;
82372;SDS011;72000;42.828;23.382;2024-02-04T05:14:45;11.85;;;4.47;;
82372;SDS011;72000;42.828;23.382;2024-02-04T05:17:10;20.88;;;7.65;;
82372;SDS011;72000;42.828;23.382;2024-02-04T05:19:36;14.52;;;5.43;;
82372;SDS011;72000;42.828;23.382;2024-02-04T05:22:02;9.57;;;4.05;;
82372;SDS011;72000;42.828;23.382;2024-02-04T05:24:28;10.52;;;4.35;;
82372;SDS011;72000;42.828;23.382;2024-02-04T05:26:53;8.65;;;3.40;;
82372;SDS011;72000;42.828;23.382;2024-02-04T05:29:19;9.52;;;3.63;;
82372;SDS011;72000;42.828;23.382;2024-02-04T05:31:44;7.15;;;3.30;;
82372;SDS011;72000;42.828;23.382;2024-02-04T05:34:10;10.20;;;4.10;;
82372;SDS011;72000;42.828;23.382;2024-02-04T05:36:36;8.30;;;3.45;;
82372;SDS011;72000;42.828;23.382;2024-02-04T05:39:11;7.78;;;3.40;;
82372;SDS011;72000;42.828;23.382;2024-02-04T05:41:37;7.95;;;3.47;;
82372;SDS011;72000;42.828;23.382;2024-02-04T05:44:03;8.48;;;4.07;;
82372;SDS011;72000;42.828;23.382;2024-02-04T05:46:29;8.48;;;3.53;;
82372;SDS011;72000;42.828;23.382;2024-02-04T05:48:55;8.60;;;3.90;;
82372;SDS011;72000;42.828;23.382;2024-02-04T05:51:21;8.82;;;3.80;;
82372;SDS011;72000;42.828;23.382;2024-02-04T05:53:47;7.07;;;3.33;;
82372;SDS011;72000;42.828;23.382;2024-02-04T05:56:12;9.90;;;4.18;;
82372;SDS011;72000;42.828;23.382;2024-02-04T05:58:39;9.32;;;4.30;;
82372;SDS011;72000;42.828;23.382;2024-02-04T06:01:04;9.48;;;3.80;;
82372;SDS011;72000;42.828;23.382;2024-02-04T06:03:30;9.40;;;3.80;;
82372;SDS011;72000;42.828;23.382;2024-02-04T06:05:55;9.65;;;3.75;;
82372;SDS011;72000;42.828;23.382;2024-02-04T06:08:21;10.40;;;3.97;;
82372;SDS011;72000;42.828;23.382;2024-02-04T06:10:46;10.38;;;3.60;;
82372;SDS011;72000;42.828;23.382;2024-02-04T06:13:13;9.25;;;3.58;;
82372;SDS011;72000;42.828;23.382;2024-02-04T06:15:39;10.25;;;4.05;;
82372;SDS011;72000;42.828;23.382;2024-02-04T06:18:04;10.20;;;4.78;;
82372;SDS011;72000;42.828;23.382;2024-02-04T06:20:30;9.93;;;4.35;;
82372;SDS011;72000;42.828;23.382;2024-02-04T06:22:56;9.38;;;4.25;;
82372;SDS011;72000;42.828;23.382;2024-02-04T06:25:23;11.27;;;4.50;;
82372;SDS011;72000;42.828;23.382;2024-02-04T06:27:49;10.60;;;4.53;;
82372;SDS011;72000;42.828;23.382;2024-02-04T06:30:14;9.38;;;3.80;;
82372;SDS011;72000;42.828;23.382;2024-02-04T06:32:41;9.18;;;3.83;;
82372;SDS011;72000;42.828;23.382;2024-02-04T06:35:07;11.45;;;4.45;;
82372;SDS011;72000;42.828;23.382;2024-02-04T06:37:32;18.27;;;6.03;;
82372;SDS011;72000;42.828;23.382;2024-02-04T06:39:58;14.13;;;5.75;;
82372;SDS011;72000;42.828;23.382;2024-02-04T06:42:24;10.55;;;4.22;;
82372;SDS011;72000;42.828;23.382;2024-02-04T06:44:49;11.05;;;3.92;;
82372;SDS011;72000;42.828;23.382;2024-02-04T06:47:15;9.60;;;4.22;;
82372;SDS011;72000;42.828;23.382;2024-02-04T06:49:43;9.93;;;4.20;;
82372;SDS011;72000;42.828;23.382;2024-02-04T06:52:09;12.13;;;4.30;;
82372;SDS011;72000;42.828;23.382;2024-02-04T06:54:34;9.55;;;4.28;;
82372;SDS011;72000;42.828;23.382;2024-02-04T06:57:00;9.68;;;4.10;;
82372;SDS011;72000;42.828;23.382;2024-02-04T06:59:26;10.95;;;4.40;;
82372;SDS011;72000;42.828;23.382;2024-02-04T07:01:51;10.30;;;4.60;;
82372;SDS011;72000;42.828;23.382;2024-02-04T07:04:19;11.55;;;4.10;;
82372;SDS011;72000;42.828;23.382;2024-02-04T07:06:47;12.35;;;4.30;;
82372;SDS011;72000;42.828;23.382;2024-02-04T07:09:13;13.32;;;5.45;;
82372;SDS011;72000;42.828;23.382;2024-02-04T07:11:38;10.98;;;4.50;;
82372;SDS011;72000;42.828;23.382;2024-02-04T07:14:04;10.20;;;4.15;;
82372;SDS011;72000;42.828;23.382;2024-02-04T07:16:31;8.77;;;3.97;;
82372;SDS011;72000;42.828;23.382;2024-02-04T07:18:57;9.30;;;4.07;;
82372;SDS011;72000;42.828;23.382;2024-02-04T07:21:22;11.38;;;4.38;;
82372;SDS011;72000;42.828;23.382;2024-02-04T07:23:48;10.23;;;4.18;;
82372;SDS011;72000;42.828;23.382;2024-02-04T07:26:13;9.90;;;4.20;;
82372;SDS011;72000;42.828;23.382;2024-02-04T07:28:39;13.70;;;5.53;;
82372;SDS011;72000;42.828;23.382;2024-02-04T07:31:05;12.20;;;5.68;;
82372;SDS011;72000;42.828;23.382;2024-02-04T07:33:30;47.72;;;17.95;;
82372;SDS011;72000;42.828;23.382;2024-02-04T07:35:56;15.48;;;6.63;;
82372;SDS011;72000;42.828;23.382;2024-02-04T07:38:21;10.45;;;4.88;;
82372;SDS011;72000;42.828;23.382;2024-02-04T07:40:47;9.57;;;4.20;;
82372;SDS011;72000;42.828;23.382;2024-02-04T07:43:12;10.65;;;4.40;;
82372;SDS011;72000;42.828;23.382;2024-02-04T07:45:38;8.35;;;3.45;;
82372;SDS011;72000;42.828;23.382;2024-02-04T07:48:04;10.93;;;3.83;;
82372;SDS011;72000;42.828;23.382;2024-02-04T07:50:30;11.30;;;3.50;;
82372;SDS011;72000;42.828;23.382;2024-02-04T07:52:55;7.05;;;2.92;;
82372;SDS011;72000;42.828;23.382;2024-02-04T07:55:21;7.10;;;3.17;;
82372;SDS011;72000;42.828;23.382;2024-02-04T07:57:46;7.00;;;2.88;;
82372;SDS011;72000;42.828;23.382;2024-02-04T08:00:12;9.13;;;3.55;;
82372;SDS011;72000;42.828;23.382;2024-02-04T08:02:38;6.88;;;3.10;;
82372;SDS011;72000;42.828;23.382;2024-02-04T08:05:04;6.43;;;2.83;;
82372;SDS011;72000;42.828;23.382;2024-02-04T08:07:30;7.28;;;2.88;;
82372;SDS011;72000;42.828;23.382;2024-02-04T08:09:56;6.80;;;3.05;;
82372;SDS011;72000;42.828;23.382;2024-02-04T08:12:22;7.10;;;3.00;;
82372;SDS011;72000;42.828;23.382;2024-02-04T08:14:48;8.40;;;3.33;;
82372;SDS011;72000;42.828;23.382;2024-02-04T08:17:13;6.13;;;2.90;;
82372;SDS011;72000;42.828;23.382;2024-02-04T08:19:39;6.82;;;2.60;;
82372;SDS011;72000;42.828;23.382;2024-02-04T08:22:05;7.07;;;2.75;;
82372;SDS011;72000;42.828;23.382;2024-02-04T08:24:31;6.68;;;2.50;;
82372;SDS011;72000;42.828;23.382;2024-02-04T08:26:58;6.22;;;3.10;;
82372;SDS011;72000;42.828;23.382;2024-02-04T08:29:23;5.70;;;2.45;;
82372;SDS011;72000;42.828;23.382;2024-02-04T08:31:49;5.85;;;2.50;;
82372;SDS011;72000;42.828;23.382;2024-02-04T08:34:17;5.30;;;2.33;;
82372;SDS011;72000;42.828;23.382;2024-02-04T08:36:44;5.68;;;2.10;;
82372;SDS011;72000;42.828;23.382;2024-02-04T08:39:10;4.40;;;2.03;;
82372;SDS011;72000;42.828;23.382;2024-02-04T08:41:35;5.22;;;2.28;;
82372;SDS011;72000;42.828;23.382;2024-02-04T08:44:01;5.57;;;2.25;;
82372;SDS011;72000;42.828;23.382;2024-02-04T08:46:27;5.35;;;2.35;;
82372;SDS011;72000;42.828;23.382;2024-02-04T08:48:52;5.78;;;2.60;;
82372;SDS011;72000;42.828;23.382;2024-02-04T08:51:18;5.80;;;2.60;;
82372;SDS011;72000;42.828;23.382;2024-02-04T08:53:44;6.32;;;2.30;;
82372;SDS011;72000;42.828;23.382;2024-02-04T08:56:10;4.95;;;1.80;;
82372;SDS011;72000;42.828;23.382;2024-02-04T08:58:35;3.78;;;1.55;;
82372;SDS011;72000;42.828;23.382;2024-02-04T09:01:05;4.82;;;1.85;;
82372;SDS011;72000;42.828;23.382;2024-02-04T09:03:31;5.50;;;2.00;;
82372;SDS011;72000;42.828;23.382;2024-02-04T09:05:58;3.55;;;1.50;;
82372;SDS011;72000;42.828;23.382;2024-02-04T09:08:23;3.67;;;1.45;;
82372;SDS011;72000;42.828;23.382;2024-02-04T09:10:49;4.25;;;1.60;;
82372;SDS011;72000;42.828;23.382;2024-02-04T09:13:14;3.65;;;1.60;;
82372;SDS011;72000;42.828;23.382;2024-02-04T09:15:40;4.00;;;1.40;;
82372;SDS011;72000;42.828;23.382;2024-02-04T09:18:05;4.50;;;1.50;;
82372;SDS011;72000;42.828;23.382;2024-02-04T09:20:31;3.42;;;1.50;;
82372;SDS011;72000;42.828;23.382;2024-02-04T09:22:56;5.05;;;1.50;;
82372;SDS011;72000;42.828;23.382;2024-02-04T09:25:24;2.95;;;1.40;;
82372;SDS011;72000;42.828;23.382;2024-02-04T09:27:50;3.60;;;1.50;;
82372;SDS011;72000;42.828;23.382;2024-02-04T09:30:15;4.70;;;2.10;;
82372;SDS011;72000;42.828;23.382;2024-02-04T09:32:41;4.68;;;1.52;;
82372;SDS011;72000;42.828;23.382;2024-02-04T09:35:07;3.20;;;1.33;;
82372;SDS011;72000;42.828;23.382;2024-02-04T09:37:34;3.95;;;1.30;;
82372;SDS011;72000;42.828;23.382;2024-02-04T09:40:00;3.42;;;1.60;;
82372;SDS011;72000;42.828;23.382;2024-02-04T09:42:25;3.70;;;1.40;;
82372;SDS011;72000;42.828;23.382;2024-02-04T09:44:53;3.25;;;1.23;;
82372;SDS011;72000;42.828;23.382;2024-02-04T09:47:20;3.03;;;1.30;;
82372;SDS011;72000;42.828;23.382;2024-02-04T09:49:46;4.28;;;1.20;;
82372;SDS011;72000;42.828;23.382;2024-02-04T09:52:12;3.28;;;1.17;;
82372;SDS011;72000;42.828;23.382;2024-02-04T09:54:45;2.65;;;1.20;;
82372;SDS011;72000;42.828;23.382;2024-02-04T09:57:14;4.05;;;1.10;;
82372;SDS011;72000;42.828;23.382;2024-02-04T10:02:08;2.55;;;1.10;;
82372;SDS011;72000;42.828;23.382;2024-02-04T10:04:33;2.58;;;1.20;;
82372;SDS011;72000;42.828;23.382;2024-02-04T10:06:59;3.53;;;1.20;;
82372;SDS011;72000;42.828;23.382;2024-02-04T10:09:25;2.45;;;1.10;;
82372;SDS011;72000;42.828;23.382;2024-02-04T10:11:51;2.45;;;1.08;;
82372;SDS011;72000;42.828;23.382;2024-02-04T10:14:16;2.50;;;1.23;;
82372;SDS011;72000;42.828;23.382;2024-02-04T10:16:44;3.00;;;1.27;;
82372;SDS011;72000;42.828;23.382;2024-02-04T10:19:10;2.88;;;1.05;;
82372;SDS011;72000;42.828;23.382;2024-02-04T10:21:37;3.22;;;1.27;;
82372;SDS011;72000;42.828;23.382;2024-02-04T10:24:02;2.50;;;1.10;;
82372;SDS011;72000;42.828;23.382;2024-02-04T10:26:28;1.90;;;0.88;;
82372;SDS011;72000;42.828;23.382;2024-02-04T10:28:59;2.55;;;1.00;;
82372;SDS011;72000;42.828;23.382;2024-02-04T10:31:28;2.55;;;1.10;;
82372;SDS011;72000;42.828;23.382;2024-02-04T10:33:54;1.92;;;0.88;;
82372;SDS011;72000;42.828;23.382;2024-02-04T10:36:20;1.85;;;0.90;;
82372;SDS011;72000;42.828;23.382;2024-02-04T10:38:45;3.65;;;1.10;;
82372;SDS011;72000;42.828;23.382;2024-02-04T10:41:15;2.67;;;1.13;;
82372;SDS011;72000;42.828;23.382;2024-02-04T10:43:42;2.50;;;1.10;;
82372;SDS011;72000;42.828;23.382;2024-02-04T10:46:18;2.17;;;1.08;;
82372;SDS011;72000;42.828;23.382;2024-02-04T10:48:45;1.95;;;1.10;;
82372;SDS011;72000;42.828;23.382;2024-02-04T10:51:16;2.08;;;1.00;;
82372;SDS011;72000;42.828;23.382;2024-02-04T10:53:43;2.50;;;1.10;;
82372;SDS011;72000;42.828;23.382;2024-02-04T10:56:29;1.95;;;0.90;;
82372;SDS011;72000;42.828;23.382;2024-02-04T10:58:57;2.53;;;1.10;;
82372;SDS011;72000;42.828;23.382;2024-02-04T11:01:25;2.28;;;1.00;;
82372;SDS011;72000;42.828;23.382;2024-02-04T11:03:51;3.88;;;1.10;;
82372;SDS011;72000;42.828;23.382;2024-02-04T11:06:18;2.60;;;1.00;;
82372;SDS011;72000;42.828;23.382;2024-02-04T11:08:44;1.67;;;0.90;;
82372;SDS011;72000;42.828;23.382;2024-02-04T11:11:09;2.55;;;1.00;;
82372;SDS011;72000;42.828;23.382;2024-02-04T11:13:35;1.90;;;0.90;;
82372;SDS011;72000;42.828;23.382;2024-02-04T11:16:01;3.17;;;1.08;;
82372;SDS011;72000;42.828;23.382;2024-02-04T11:21:25;2.67;;;1.00;;
82372;SDS011;72000;42.828;23.382;2024-02-04T11:26:45;1.95;;;1.08;;
82372;SDS011;72000;42.828;23.382;2024-02-04T11:29:11;2.67;;;1.00;;
82372;SDS011;72000;42.828;23.382;2024-02-04T11:34:04;3.28;;;1.08;;
82372;SDS011;72000;42.828;23.382;2024-02-04T11:36:30;2.28;;;1.10;;
82372;SDS011;72000;42.828;23.382;2024-02-04T11:39:11;2.53;;;1.10;;
82372;SDS011;72000;42.828;23.382;2024-02-04T11:41:46;2.20;;;0.90;;
82372;SDS011;72000;42.828;23.382;2024-02-04T11:44:13;3.67;;;1.20;;
82372;SDS011;72000;42.828;23.382;2024-02-04T11:46:46;3.95;;;1.30;;
82372;SDS011;72000;42.828;23.382;2024-02-04T11:49:15;3.20;;;1.30;;
82372;SDS011;72000;42.828;23.382;2024-02-04T11:51:44;3.22;;;1.30;;
82372;SDS011;72000;42.828;23.382;2024-02-04T11:54:17;2.33;;;1.05;;
82372;SDS011;72000;42.828;23.382;2024-02-04T11:59:18;3.28;;;1.30;;
82372;SDS011;72000;42.828;23.382;2024-02-04T12:01:45;3.05;;;1.40;;
82372;SDS011;72000;42.828;23.382;2024-02-04T12:04:17;3.60;;;1.40;;
82372;SDS011;72000;42.828;23.382;2024-02-04T12:06:43;4.78;;;1.70;;
82372;SDS011;72000;42.828;23.382;2024-02-04T12:09:09;4.40;;;1.70;;
82372;SDS011;72000;42.828;23.382;2024-02-04T12:11:35;3.97;;;1.15;;
82372;SDS011;72000;42.828;23.382;2024-02-04T12:14:01;4.07;;;1.60;;
82372;SDS011;72000;42.828;23.382;2024-02-04T12:16:29;2.78;;;1.10;;
82372;SDS011;72000;42.828;23.382;2024-02-04T12:18:54;2.40;;;1.10;;
82372;SDS011;72000;42.828;23.382;2024-02-04T12:21:20;2.08;;;1.00;;
82372;SDS011;72000;42.828;23.382;2024-02-04T12:23:46;2.72;;;1.20;;
82372;SDS011;72000;42.828;23.382;2024-02-04T12:26:12;3.53;;;1.20;;
82372;SDS011;72000;42.828;23.382;2024-02-04T12:28:39;3.13;;;1.30;;
82372;SDS011;72000;42.828;23.382;2024-02-04T12:31:04;4.45;;;1.30;;
82372;SDS011;72000;42.828;23.382;2024-02-04T12:33:30;2.42;;;1.20;;
82372;SDS011;72000;42.828;23.382;2024-02-04T12:35:58;3.55;;;1.30;;
82372;SDS011;72000;42.828;23.382;2024-02-04T12:38:25;2.38;;;1.10;;
82372;SDS011;72000;42.828;23.382;2024-02-04T12:40:51;2.30;;;1.10;;
82372;SDS011;72000;42.828;23.382;2024-02-04T12:43:17;2.85;;;1.20;;
82372;SDS011;72000;42.828;23.382;2024-02-04T12:45:42;2.67;;;1.38;;
82372;SDS011;72000;42.828;23.382;2024-02-04T12:48:08;2.42;;;1.10;;
82372;SDS011;72000;42.828;23.382;2024-02-04T12:50:36;2.65;;;1.15;;
82372;SDS011;72000;42.828;23.382;2024-02-04T12:53:03;2.67;;;1.20;;
82372;SDS011;72000;42.828;23.382;2024-02-04T12:55:34;2.53;;;1.10;;
82372;SDS011;72000;42.828;23.382;2024-02-04T13:00:30;2.78;;;1.20;;
82372;SDS011;72000;42.828;23.382;2024-02-04T13:02:56;2.40;;;1.10;;
82372;SDS011;72000;42.828;23.382;2024-02-04T13:05:22;2.90;;;1.40;;
82372;SDS011;72000;42.828;23.382;2024-02-04T13:07:52;2.50;;;1.17;;
82372;SDS011;72000;42.828;23.382;2024-02-04T13:10:18;2.33;;;1.10;;
82372;SDS011;72000;42.828;23.382;2024-02-04T13:12:44;2.50;;;1.10;;
82372;SDS011;72000;42.828;23.382;2024-02-04T13:15:09;2.38;;;1.10;;
82372;SDS011;72000;42.828;23.382;2024-02-04T13:17:35;2.35;;;1.02;;
82372;SDS011;72000;42.828;23.382;2024-02-04T13:20:01;2.47;;;1.20;;
82372;SDS011;72000;42.828;23.382;2024-02-04T13:22:26;2.22;;;1.10;;
82372;SDS011;72000;42.828;23.382;2024-02-04T13:24:52;3.28;;;1.10;;
82372;SDS011;72000;42.828;23.382;2024-02-04T13:27:17;2.80;;;1.30;;
82372;SDS011;72000;42.828;23.382;2024-02-04T13:29:43;3.65;;;1.20;;
82372;SDS011;72000;42.828;23.382;2024-02-04T13:32:08;2.58;;;1.20;;
82372;SDS011;72000;42.828;23.382;2024-02-04T13:34:34;3.30;;;1.20;;
82372;SDS011;72000;42.828;23.382;2024-02-04T13:36:59;3.00;;;1.23;;
82372;SDS011;72000;42.828;23.382;2024-02-04T13:39:25;4.05;;;1.50;;
82372;SDS011;72000;42.828;23.382;2024-02-04T13:41:51;2.90;;;1.40;;
82372;SDS011;72000;42.828;23.382;2024-02-04T13:44:16;3.30;;;1.30;;
82372;SDS011;72000;42.828;23.382;2024-02-04T13:46:42;2.90;;;1.30;;
82372;SDS011;72000;42.828;23.382;2024-02-04T13:49:08;3.90;;;1.52;;
82372;SDS011;72000;42.828;23.382;2024-02-04T13:51:34;3.20;;;1.35;;
82372;SDS011;72000;42.828;23.382;2024-02-04T13:54:01;2.90;;;1.40;;
82372;SDS011;72000;42.828;23.382;2024-02-04T13:56:26;3.10;;;1.30;;
82372;SDS011;72000;42.828;23.382;2024-02-04T13:58:52;3.25;;;1.42;;
82372;SDS011;72000;42.828;23.382;2024-02-04T14:01:18;3.17;;;1.40;;
82372;SDS011;72000;42.828;23.382;2024-02-04T14:03:45;2.33;;;1.10;;
82372;SDS011;72000;42.828;23.382;2024-02-04T14:06:11;3.33;;;1.23;;
82372;SDS011;72000;42.828;23.382;2024-02-04T14:08:37;3.55;;;1.40;;
82372;SDS011;72000;42.828;23.382;2024-02-04T14:11:03;2.80;;;1.30;;
82372;SDS011;72000;42.828;23.382;2024-02-04T14:13:29;3.35;;;1.20;;
82372;SDS011;72000;42.828;23.382;2024-02-04T14:15:54;4.20;;;1.35;;
82372;SDS011;72000;42.828;23.382;2024-02-04T14:18:20;2.78;;;1.27;;
82372;SDS011;72000;42.828;23.382;2024-02-04T14:20:45;4.45;;;1.70;;
82372;SDS011;72000;42.828;23.382;2024-02-04T14:23:11;3.88;;;1.65;;
82372;SDS011;72000;42.828;23.382;2024-02-04T14:25:37;2.80;;;1.50;;
82372;SDS011;72000;42.828;23.382;2024-02-04T14:28:02;4.68;;;1.70;;
82372;SDS011;72000;42.828;23.382;2024-02-04T14:30:29;3.55;;;1.33;;
82372;SDS011;72000;42.828;23.382;2024-02-04T14:32:54;4.75;;;1.40;;
82372;SDS011;72000;42.828;23.382;2024-02-04T14:35:21;2.67;;;1.25;;
82372;SDS011;72000;42.828;23.382;2024-02-04T14:37:47;2.92;;;1.33;;
82372;SDS011;72000;42.828;23.382;2024-02-04T14:40:12;3.90;;;1.45;;
82372;SDS011;72000;42.828;23.382;2024-02-04T14:42:38;4.45;;;1.52;;
82372;SDS011;72000;42.828;23.382;2024-02-04T14:45:05;2.90;;;1.30;;
82372;SDS011;72000;42.828;23.382;2024-02-04T14:47:31;4.85;;;1.73;;
82372;SDS011;72000;42.828;23.382;2024-02-04T14:49:57;5.05;;;1.40;;